Hlavní strana
METAR-TAF:

METAR-TAF

Letiště :

Dakar, Senegal

zeměpisná šířka: 14-44N, zeměpisná délka: 017-30W, výška: 27 m

Aktuální stav počasí

Zpráva byla vytvořena před 1 hodinou a 11 minutami, v 14:00 UTC
Západní vítr 12 kt
Teplota 30°C
Vlhkost vzduchu 70%
Tlak 1011 hPa
Viditelnost 10 km a více
Skoro jasno ve výšce 1300 ft

METAR: GOOY 151400Z 28012KT 9999 FEW013 30/24 Q1011

Čas: 15:11 (15:11 UTC)

Předpověď počasí

Zpráva byla vytvořena před 3 hodinami a 41 minutami, v 11:30 UTC
Předpověď platná od 15 v 12 UTC do 16 v 18 UTC
Jižní vítr 10 kt
Viditelnost 10 km a více
Polojasno ve výšce 1300 ft
Změna
od 15 v 17 UTC do 15 v 19 UTC
Severozápadní vítr 8 kt

TAF: GOOY 151130Z 1512/1618 18010KT 9999 SCT013 BECMG 1517/1519 32008KT

Stav a předpovědi počasí z více než 4 000 letišť (zprávy METAR a TAF).

Červené a žluté tečky na mapě představují dostupné meteorologické stanice.

Když kurzor umístíte na tečku, zobrazí se název stanice.

Pak kliknutím zobrazíte stav a předpověď počasí.

Chcete-li změnit mapu, kliknutím na zelené tlačítko se znaménkem +mapu přiblížíte, kliknutím na zelené tlačítko se znaménkem – mapu oddálíte a kliknutím na zelené šipky přejdete na sousední mapy.


METAR-TAF: